createdAt,value
2022-11-12T04:01:25.042Z,8.00
2022-11-12T04:04:11.293Z,8.00
2022-11-12T04:07:15.117Z,8.00
2022-11-12T04:10:01.742Z,7.90
2022-11-12T04:13:05.323Z,7.80
2022-11-12T04:16:11.989Z,7.70
2022-11-12T04:19:18.420Z,7.70
2022-11-12T04:22:08.266Z,7.80
2022-11-12T04:25:12.239Z,7.90
2022-11-12T04:27:58.823Z,7.90
2022-11-12T04:30:44.134Z,7.90
2022-11-12T04:33:30.806Z,8.00
2022-11-12T04:36:18.625Z,8.10
2022-11-12T04:39:04.894Z,8.00
2022-11-12T04:42:08.878Z,8.20
2022-11-12T04:45:01.315Z,8.10
2022-11-12T04:47:47.886Z,8.00
2022-11-12T04:50:34.851Z,8.10
2022-11-12T04:53:22.815Z,8.10
2022-11-12T04:56:09.198Z,8.10
2022-11-12T04:58:55.623Z,7.80
2022-11-12T05:01:41.989Z,7.80
2022-11-12T05:04:29.214Z,7.90
2022-11-12T05:07:16.336Z,8.00
2022-11-12T05:10:04.506Z,8.10
2022-11-12T05:12:50.783Z,8.20
2022-11-12T05:15:37.176Z,8.20
2022-11-12T05:18:23.587Z,8.20
2022-11-12T05:21:24.165Z,8.20
2022-11-12T05:24:27.409Z,8.20
2022-11-12T05:27:20.860Z,8.30
2022-11-12T05:30:15.798Z,8.30
2022-11-12T05:33:02.519Z,8.40
2022-11-12T05:35:48.871Z,8.40
2022-11-12T05:38:35.223Z,8.50
2022-11-12T05:41:21.686Z,8.40
2022-11-12T05:44:09.383Z,8.40
2022-11-12T05:46:55.999Z,8.40
2022-11-12T05:49:42.376Z,8.40
2022-11-12T05:52:28.705Z,8.40
2022-11-12T05:55:15.322Z,8.40
2022-11-12T05:58:06.135Z,8.40
2022-11-12T06:00:53.893Z,8.40
2022-11-12T06:03:40.184Z,8.40
2022-11-12T06:06:26.779Z,8.30
2022-11-12T06:09:13.514Z,8.40
2022-11-12T06:11:59.721Z,8.30
2022-11-12T06:14:46.081Z,8.30
2022-11-12T06:17:33.894Z,8.30
2022-11-12T06:20:20.191Z,8.20
2022-11-12T06:23:07.045Z,8.10
2022-11-12T06:25:53.312Z,8.20
2022-11-12T06:28:39.568Z,8.10
2022-11-12T06:31:25.955Z,8.20
2022-11-12T06:34:13.890Z,8.10
2022-11-12T06:37:00.207Z,8.10
2022-11-12T06:39:46.491Z,8.10
2022-11-12T06:42:32.890Z,8.20
2022-11-12T06:45:19.143Z,8.10
2022-11-12T06:48:05.510Z,8.10
2022-11-12T06:50:53.117Z,8.10
2022-11-12T06:53:39.557Z,8.20
2022-11-12T06:56:25.903Z,8.10
2022-11-12T06:59:12.590Z,8.20
2022-11-12T07:01:59.022Z,8.20
2022-11-12T07:04:45.818Z,8.20
2022-11-12T07:07:33.598Z,8.20
2022-11-12T07:10:19.992Z,8.20
2022-11-12T07:13:06.551Z,8.20
2022-11-12T07:15:53.106Z,8.20
2022-11-12T07:18:39.767Z,8.10
2022-11-12T07:21:26.375Z,8.10
2022-11-12T07:24:14.337Z,8.10
2022-11-12T07:27:00.665Z,8.20
2022-11-12T07:29:48.687Z,8.10
2022-11-12T07:32:41.925Z,8.10
2022-11-12T07:35:30.892Z,8.10
2022-11-12T07:38:17.546Z,8.30
2022-11-12T07:41:07.405Z,8.20
2022-11-12T07:43:54.607Z,8.20
2022-11-12T07:46:41.381Z,8.30
2022-11-12T07:49:27.722Z,8.40
2022-11-12T07:52:14.062Z,8.40
2022-11-12T07:55:00.351Z,8.50
2022-11-12T07:57:47.950Z,8.60
2022-11-12T08:00:34.221Z,8.50
2022-11-12T08:03:20.806Z,8.40
2022-11-12T08:06:08.109Z,8.50
2022-11-12T08:08:55.204Z,8.50
2022-11-12T08:11:42.384Z,8.40
2022-11-12T08:14:30.508Z,8.50
2022-11-12T08:17:17.013Z,8.50
2022-11-12T08:20:03.770Z,8.60
2022-11-12T08:22:50.577Z,8.60
2022-11-12T08:25:37.434Z,8.60
2022-11-12T08:28:23.896Z,8.50
2022-11-12T08:31:14.415Z,8.50
2022-11-12T08:34:11.834Z,8.40
2022-11-12T08:36:58.210Z,8.50
2022-11-12T08:39:44.614Z,8.50
2022-11-12T08:42:30.871Z,8.60
2022-11-12T08:45:17.169Z,8.50
2022-11-12T08:48:07.386Z,8.60
2022-11-12T08:50:54.025Z,8.40
2022-11-12T08:53:40.298Z,8.50
2022-11-12T08:56:26.692Z,8.50
2022-11-12T08:59:12.908Z,8.40
2022-11-12T09:01:59.260Z,8.50
2022-11-12T09:04:46.938Z,8.60
2022-11-12T09:07:49.487Z,8.60
2022-11-12T09:10:37.628Z,8.60
2022-11-12T09:13:24.073Z,8.70
2022-11-12T09:16:11.774Z,8.60
2022-11-12T09:18:57.830Z,8.40
2022-11-12T09:21:45.572Z,8.30
2022-11-12T09:24:32.182Z,8.20
2022-11-12T09:27:18.384Z,8.30
2022-11-12T09:30:06.572Z,8.30
2022-11-12T09:32:58.754Z,8.40
2022-11-12T09:35:46.448Z,8.50
2022-11-12T09:38:34.292Z,8.50
2022-11-12T09:41:26.794Z,8.60
2022-11-12T09:44:16.751Z,8.70
2022-11-12T09:47:08.881Z,8.70
2022-11-12T09:50:02.542Z,8.50
2022-11-12T09:52:52.915Z,8.20
2022-11-12T09:55:44.530Z,8.20
2022-11-12T09:58:30.880Z,8.40
2022-11-12T10:01:20.806Z,8.50
2022-11-12T10:04:22.403Z,8.70
2022-11-12T10:07:17.798Z,8.80
2022-11-12T10:10:10.921Z,8.80
2022-11-12T10:13:14.828Z,8.90
2022-11-12T10:16:34.687Z,9.00
2022-11-12T10:19:31.375Z,9.00
2022-11-12T10:22:42.983Z,9.10
2022-11-12T10:25:29.427Z,9.00
2022-11-12T10:28:30.185Z,9.10
2022-11-12T10:31:21.909Z,9.20
2022-11-12T10:34:17.002Z,9.00
2022-11-12T10:37:07.854Z,9.10
2022-11-12T10:39:54.403Z,9.00
2022-11-12T10:42:58.533Z,9.00
2022-11-12T10:45:47.693Z,9.10
2022-11-12T10:48:35.208Z,9.30
2022-11-12T10:51:28.478Z,9.20
2022-11-12T10:54:35.961Z,9.20
2022-11-12T10:57:25.559Z,9.30
2022-11-12T11:00:22.625Z,9.30
2022-11-12T11:03:22.305Z,9.30
2022-11-12T11:06:22.176Z,9.50
2022-11-12T11:09:17.850Z,9.50
2022-11-12T11:12:04.705Z,9.50
2022-11-12T11:15:08.236Z,9.40
2022-11-12T11:17:54.612Z,9.50
2022-11-12T11:20:48.993Z,9.40
2022-11-12T11:23:42.704Z,9.40
2022-11-12T11:26:38.834Z,9.30
2022-11-12T11:29:39.427Z,9.30
2022-11-12T11:32:57.340Z,9.20
2022-11-12T11:35:56.324Z,9.20
2022-11-12T11:38:56.634Z,9.20
2022-11-12T11:41:55.606Z,9.20
2022-11-12T11:44:49.564Z,9.40
2022-11-12T11:48:00.446Z,9.40
2022-11-12T11:50:59.724Z,9.50
2022-11-12T11:53:54.869Z,9.50
2022-11-12T11:56:44.458Z,9.60
2022-11-12T11:59:43.247Z,9.60
2022-11-12T12:02:47.283Z,9.50
2022-11-12T12:05:46.530Z,9.60
2022-11-12T12:08:52.748Z,9.60
2022-11-12T12:11:48.575Z,9.50
2022-11-12T12:14:52.870Z,9.40
2022-11-12T12:17:51.445Z,9.60
2022-11-12T12:20:46.078Z,9.70
2022-11-12T12:23:42.999Z,9.80
2022-11-12T12:26:36.226Z,9.90
2022-11-12T12:29:30.848Z,9.70
2022-11-12T12:32:24.283Z,9.80
2022-11-12T12:35:21.931Z,9.90
2022-11-12T12:38:15.084Z,9.90
2022-11-12T12:41:10.862Z,9.90
2022-11-12T12:44:03.797Z,9.90
2022-11-12T12:46:54.255Z,10.00
2022-11-12T12:49:42.196Z,10.00
2022-11-12T12:52:28.558Z,9.90
2022-11-12T12:55:42.834Z,9.90
2022-11-12T12:58:33.436Z,10.00
2022-11-12T13:01:31.373Z,10.10
2022-11-12T13:04:17.807Z,10.10
2022-11-12T13:07:09.921Z,10.20
2022-11-12T13:10:53.602Z,10.10
2022-11-12T13:13:41.422Z,10.20
2022-11-12T13:16:59.176Z,10.20
2022-11-12T13:19:48.133Z,10.20
2022-11-12T13:22:49.395Z,10.20
2022-11-12T13:25:35.717Z,10.20
2022-11-12T13:28:22.340Z,10.30
2022-11-12T13:31:28.008Z,10.40
2022-11-12T13:34:29.041Z,10.40
2022-11-12T13:37:21.311Z,10.50
2022-11-12T13:40:13.011Z,10.50
2022-11-12T13:43:05.698Z,10.40
2022-11-12T13:45:55.883Z,10.50
2022-11-12T13:48:46.879Z,10.50
2022-11-12T13:51:40.756Z,10.50
2022-11-12T13:54:36.989Z,10.50
2022-11-12T13:57:29.130Z,10.50
2022-11-12T14:00:25.842Z,10.40
2022-11-12T14:03:18.073Z,10.20
2022-11-12T14:06:16.020Z,10.00
2022-11-12T14:09:29.377Z,10.10
2022-11-12T14:12:32.517Z,10.20
2022-11-12T14:15:30.477Z,10.30
2022-11-12T14:18:24.309Z,10.40
2022-11-12T14:21:17.937Z,10.40
2022-11-12T14:24:05.308Z,10.40
2022-11-12T14:26:51.683Z,10.40
2022-11-12T14:29:43.399Z,10.40
2022-11-12T14:32:37.114Z,10.40
2022-11-12T14:35:31.516Z,10.40
2022-11-12T14:38:22.242Z,10.10
2022-11-12T14:41:11.304Z,9.80
2022-11-12T14:44:11.936Z,9.60
2022-11-12T14:46:59.729Z,9.80
2022-11-12T14:49:49.487Z,9.90
2022-11-12T14:52:38.438Z,9.90
2022-11-12T14:55:29.488Z,9.90
2022-11-12T14:58:18.226Z,9.90
2022-11-12T15:04:38.292Z,10.00
2022-11-12T15:07:27.632Z,10.00
2022-11-12T15:10:31.226Z,9.90
2022-11-12T15:13:20.628Z,9.80
2022-11-12T15:16:08.948Z,9.70
2022-11-12T15:19:18.467Z,9.70
2022-11-12T15:22:05.612Z,9.80
2022-11-12T15:24:52.023Z,9.90
2022-11-12T15:27:41.960Z,9.90
2022-11-12T15:30:30.606Z,9.90
2022-11-12T15:33:22.039Z,9.90
2022-11-12T15:36:17.742Z,9.90
2022-11-12T15:39:04.854Z,9.80
2022-11-12T15:41:58.993Z,9.90
2022-11-12T15:44:47.050Z,9.90
2022-11-12T15:47:33.506Z,9.90
2022-11-12T15:50:21.579Z,9.80
2022-11-12T15:53:08.358Z,9.90
2022-11-12T15:55:55.092Z,10.00
2022-11-12T15:58:41.729Z,9.90
2022-11-12T16:01:29.473Z,9.80
2022-11-12T16:04:15.980Z,9.70
2022-11-12T16:07:02.449Z,9.80
2022-11-12T16:09:48.856Z,9.90
2022-11-12T16:12:35.830Z,9.90
2022-11-12T16:15:25.417Z,9.90
2022-11-12T16:18:13.579Z,9.80
2022-11-12T16:21:00.331Z,9.80
2022-11-12T16:23:46.667Z,9.90
2022-11-12T16:26:34.808Z,9.80
2022-11-12T16:29:21.195Z,9.90
2022-11-12T16:32:08.175Z,9.90
2022-11-12T16:35:00.933Z,9.70
2022-11-12T16:37:48.643Z,9.70
2022-11-12T16:40:35.276Z,9.70
2022-11-12T16:43:21.924Z,9.80
2022-11-12T16:46:15.777Z,9.80
2022-11-12T16:49:03.275Z,9.70
2022-11-12T16:51:51.115Z,9.70
2022-11-12T16:54:37.418Z,9.70
2022-11-12T16:57:23.713Z,9.70
2022-11-12T17:00:13.481Z,9.80
2022-11-12T17:03:00.153Z,9.70
2022-11-12T17:05:52.288Z,9.60
2022-11-12T17:08:40.338Z,9.70
2022-11-12T17:11:26.633Z,9.70
2022-11-12T17:14:12.972Z,9.60
2022-11-12T17:16:59.394Z,9.70
2022-11-12T17:19:45.659Z,9.80
2022-11-12T17:22:32.189Z,9.70
2022-11-12T17:25:20.179Z,9.80
2022-11-12T17:28:06.909Z,9.80
2022-11-12T17:31:02.308Z,9.70
2022-11-12T17:33:50.225Z,9.70
2022-11-12T17:36:42.159Z,9.80
2022-11-12T17:39:30.144Z,9.70
2022-11-12T17:42:17.842Z,9.60
2022-11-12T17:45:04.465Z,9.60
2022-11-12T17:47:50.925Z,9.60
2022-11-12T17:50:37.373Z,9.60
2022-11-12T17:53:23.823Z,9.50
2022-11-12T17:56:12.281Z,9.40
2022-11-12T17:59:00.671Z,9.50
2022-11-12T18:01:47.408Z,9.60
2022-11-12T18:04:33.840Z,9.70
2022-11-12T18:07:20.206Z,9.80
2022-11-12T18:10:07.285Z,9.80
2022-11-12T18:12:54.035Z,9.70
2022-11-12T18:15:41.695Z,9.70
2022-11-12T18:18:28.348Z,9.60
2022-11-12T18:21:15.263Z,9.60
2022-11-12T18:24:01.835Z,9.60
2022-11-12T18:26:48.286Z,9.50
2022-11-12T18:29:35.920Z,9.50
2022-11-12T18:32:23.707Z,9.50
2022-11-12T18:35:10.414Z,9.40
2022-11-12T18:37:57.465Z,9.50
2022-11-12T18:40:44.209Z,9.50
2022-11-12T18:43:30.668Z,9.50
2022-11-12T18:46:17.553Z,9.50
2022-11-12T18:49:05.354Z,9.50
2022-11-12T18:51:51.928Z,9.60
2022-11-12T18:54:38.413Z,9.60
2022-11-12T18:57:25.060Z,9.60
2022-11-12T19:00:12.940Z,9.50
2022-11-12T19:02:59.773Z,9.50
2022-11-12T19:05:48.218Z,9.50
2022-11-12T19:08:35.125Z,9.50
2022-11-12T19:11:22.035Z,9.50
2022-11-12T19:14:08.736Z,9.50
2022-11-12T19:16:55.064Z,9.40
2022-11-12T19:19:41.473Z,9.40
2022-11-12T19:22:29.257Z,9.40
2022-11-12T19:25:16.778Z,9.40
2022-11-12T19:28:03.712Z,9.40
2022-11-12T19:30:50.147Z,9.40
2022-11-12T19:33:36.718Z,9.40
2022-11-12T19:36:24.939Z,9.40
2022-11-12T19:39:12.641Z,9.40
2022-11-12T19:41:59.604Z,9.30
2022-11-12T19:44:46.218Z,9.40
2022-11-12T19:47:32.670Z,9.40
2022-11-12T19:50:24.357Z,9.50
2022-11-12T19:53:11.366Z,9.30
2022-11-12T19:56:01.885Z,9.30
2022-11-12T19:58:50.052Z,9.30
2022-11-12T20:01:36.762Z,9.30
2022-11-12T20:04:24.349Z,9.30
2022-11-12T20:07:11.132Z,9.30
2022-11-12T20:10:00.875Z,9.30
2022-11-12T20:12:49.327Z,9.20
2022-11-12T20:15:38.551Z,9.20
2022-11-12T20:18:25.857Z,9.10
2022-11-12T20:21:12.935Z,9.00
2022-11-12T20:23:59.554Z,9.10
2022-11-12T20:26:46.021Z,9.10
2022-11-12T20:29:33.726Z,9.10
2022-11-12T20:32:20.041Z,9.00
2022-11-12T20:35:13.273Z,9.00
2022-11-12T20:38:03.008Z,9.00
2022-11-12T20:40:49.402Z,9.00
2022-11-12T20:43:35.777Z,9.00
2022-11-12T20:46:23.858Z,9.00
2022-11-12T20:49:10.298Z,9.00
2022-11-12T20:51:56.668Z,9.00
2022-11-12T20:54:42.979Z,9.00
2022-11-12T20:57:29.522Z,9.00
2022-11-12T21:00:22.880Z,8.90
2022-11-12T21:03:12.227Z,8.90
2022-11-12T21:05:59.630Z,8.90
2022-11-12T21:08:46.118Z,8.90
2022-11-12T21:11:32.572Z,8.90
2022-11-12T21:14:19.226Z,9.00
2022-11-12T21:17:05.660Z,9.00
2022-11-12T21:19:54.621Z,9.10
2022-11-12T21:22:41.289Z,9.10
2022-11-12T21:25:27.573Z,9.20
2022-11-12T21:28:14.314Z,9.10
2022-11-12T21:31:06.893Z,8.80
2022-11-12T21:33:55.198Z,8.70
2022-11-12T21:36:42.937Z,8.70
2022-11-12T21:39:29.402Z,8.80
2022-11-12T21:42:16.040Z,8.80
2022-11-12T21:45:02.339Z,8.90
2022-11-12T21:47:48.806Z,8.80
2022-11-12T21:50:35.336Z,8.90
2022-11-12T21:53:23.097Z,8.90
2022-11-12T21:56:12.098Z,9.00
2022-11-12T21:59:00.428Z,9.00
2022-11-12T22:01:47.237Z,8.90
2022-11-12T22:04:33.621Z,8.90
2022-11-12T22:07:19.940Z,8.80
2022-11-12T22:10:08.513Z,8.80
2022-11-12T22:13:24.760Z,8.80
2022-11-12T22:16:05.734Z,8.80
2022-11-12T22:18:54.875Z,8.80
2022-11-12T22:21:41.625Z,8.90
2022-11-12T22:24:28.784Z,8.90
2022-11-12T22:27:16.362Z,9.00
2022-11-12T22:30:03.150Z,9.00
2022-11-12T22:32:49.879Z,9.00
2022-11-12T22:35:36.588Z,9.00
2022-11-12T22:38:23.187Z,9.00
2022-11-12T22:41:11.855Z,9.00
2022-11-12T22:44:01.179Z,9.00
2022-11-12T22:46:47.788Z,8.90
2022-11-12T22:49:34.438Z,8.90
2022-11-12T22:52:21.148Z,8.80
2022-11-12T22:55:08.157Z,8.60
2022-11-12T22:57:54.834Z,8.60
